Time;durP1;ratioP1;P1;durP2;ratioP2;P2;SDS_P1;SDS_P2;PMS_P1;PMS_P2;Temp;Humidity;BMP_temperature;BMP_pressure;BME280_temperature;BME280_humidity;BME280_pressure;Samples;Min_cycle;Max_cycle;Signal;HPM_P1;HPM_P2
2023/05/27 00:00:11;;;;;;;22.20;4.90;;;;;;;;;;4988468;28;20280;-71
2023/05/27 00:02:36;;;;;;;19.27;3.92;;;;;;;;;;4993149;28;20272;-71
2023/05/27 00:05:02;;;;;;;20.45;4.00;;;;;;;;;;4991003;28;20034;-71
2023/05/27 00:07:27;;;;;;;17.13;4.20;;;;;;;;;;4986372;28;20018;-72
2023/05/27 00:09:53;;;;;;;19.80;3.75;;;;;;;;;;4981954;28;20026;-71
2023/05/27 00:12:18;;;;;;;17.80;4.28;;;;;;;;;;4992860;28;20030;-71
2023/05/27 00:14:43;;;;;;;20.67;3.67;;;;;;;;;;4983712;28;20510;-71
2023/05/27 00:17:09;;;;;;;17.90;4.38;;;;;;;;;;4986118;28;20269;-71
2023/05/27 00:19:34;;;;;;;25.63;4.88;;;;;;;;;;4990730;28;20097;-71
2023/05/27 00:21:59;;;;;;;17.80;3.45;;;;;;;;;;4985859;28;20034;-71
2023/05/27 00:24:25;;;;;;;16.83;4.23;;;;;;;;;;4987370;28;20059;-71
2023/05/27 00:26:50;;;;;;;27.90;4.90;;;;;;;;;;4986330;28;20308;-71
2023/05/27 00:29:15;;;;;;;16.23;4.20;;;;;;;;;;4982045;28;20019;-71
2023/05/27 00:31:41;;;;;;;16.65;4.72;;;;;;;;;;4986603;28;20304;-71
2023/05/27 00:34:06;;;;;;;20.60;4.03;;;;;;;;;;4986735;28;20022;-71
2023/05/27 00:36:31;;;;;;;15.10;3.60;;;;;;;;;;4991723;28;20352;-71
2023/05/27 00:38:57;;;;;;;24.92;4.13;;;;;;;;;;4985223;28;20281;-71
2023/05/27 00:41:22;;;;;;;19.55;4.50;;;;;;;;;;4986503;28;20022;-71
2023/05/27 00:43:48;;;;;;;26.30;4.13;;;;;;;;;;4985778;28;20026;-71
2023/05/27 00:46:13;;;;;;;23.83;3.83;;;;;;;;;;4978962;28;20089;-71
2023/05/27 00:48:38;;;;;;;16.23;3.67;;;;;;;;;;4988018;28;20289;-71
2023/05/27 00:51:03;;;;;;;16.38;4.25;;;;;;;;;;4988298;28;20110;-71
2023/05/27 00:53:34;;;;;;;25.58;3.78;;;;;;;;;;4986829;28;20061;-71
2023/05/27 00:56:00;;;;;;;20.27;4.78;;;;;;;;;;4982108;28;20116;-71
2023/05/27 00:58:27;;;;;;;31.85;4.18;;;;;;;;;;4983821;28;20481;-71
2023/05/27 01:00:52;;;;;;;18.17;3.72;;;;;;;;;;4985950;28;20018;-71
2023/05/27 01:03:19;;;;;;;17.83;4.13;;;;;;;;;;4988900;28;20022;-71
2023/05/27 01:05:45;;;;;;;23.02;3.97;;;;;;;;;;4985362;28;20281;-71
2023/05/27 01:08:21;;;;;;;17.92;4.97;;;;;;;;;;4980002;28;20025;-71
2023/05/27 01:10:49;;;;;;;15.38;3.67;;;;;;;;;;4988577;28;20050;-71
2023/05/27 01:13:23;;;;;;;20.10;4.43;;;;;;;;;;4987848;28;20099;-71
2023/05/27 01:15:50;;;;;;;15.43;4.45;;;;;;;;;;4983499;28;20498;-71
2023/05/27 01:18:16;;;;;;;26.75;4.50;;;;;;;;;;4986490;28;20030;-71
2023/05/27 01:20:43;;;;;;;28.77;3.70;;;;;;;;;;4988484;28;20422;-71
2023/05/27 01:23:09;;;;;;;13.90;3.97;;;;;;;;;;4986867;28;20045;-71
2023/05/27 01:25:34;;;;;;;12.23;3.63;;;;;;;;;;4988803;28;20465;-71
2023/05/27 01:27:59;;;;;;;20.30;4.60;;;;;;;;;;4985221;28;20097;-71
2023/05/27 01:30:25;;;;;;;19.92;4.40;;;;;;;;;;4985015;28;20285;-71
2023/05/27 01:32:54;;;;;;;18.60;4.20;;;;;;;;;;4984059;28;20018;-71
2023/05/27 01:35:20;;;;;;;22.13;4.00;;;;;;;;;;4991496;28;20477;-71
2023/05/27 01:37:45;;;;;;;14.65;4.03;;;;;;;;;;4986365;28;20045;-71
2023/05/27 01:40:12;;;;;;;22.67;4.28;;;;;;;;;;4986236;28;20056;-71
2023/05/27 01:42:39;;;;;;;14.82;4.90;;;;;;;;;;4986946;28;20030;-71
2023/05/27 01:45:05;;;;;;;24.65;4.63;;;;;;;;;;4980074;28;20022;-71
2023/05/27 01:47:31;;;;;;;20.27;4.00;;;;;;;;;;4985031;28;20524;-72
2023/05/27 01:49:56;;;;;;;19.73;4.03;;;;;;;;;;4979451;28;20030;-71
2023/05/27 01:52:21;;;;;;;23.73;4.15;;;;;;;;;;4977941;28;20049;-71
2023/05/27 01:54:47;;;;;;;35.75;4.45;;;;;;;;;;4985219;28;20030;-71
2023/05/27 01:57:12;;;;;;;20.67;3.80;;;;;;;;;;4989308;28;20046;-71
2023/05/27 01:59:37;;;;;;;17.70;4.00;;;;;;;;;;4987111;28;20025;-71
2023/05/27 02:02:02;;;;;;;19.55;4.55;;;;;;;;;;4980767;28;20044;-71
2023/05/27 02:04:27;;;;;;;25.20;3.77;;;;;;;;;;4981751;28;20437;-71
2023/05/27 02:06:53;;;;;;;18.75;4.13;;;;;;;;;;4985152;28;20280;-71
2023/05/27 02:09:18;;;;;;;16.85;4.35;;;;;;;;;;4988034;28;20018;-71
2023/05/27 02:11:43;;;;;;;20.45;4.30;;;;;;;;;;4984067;28;20069;-71
2023/05/27 02:14:08;;;;;;;28.13;4.40;;;;;;;;;;4987634;28;20059;-71
2023/05/27 02:16:34;;;;;;;26.80;4.47;;;;;;;;;;4985187;28;20277;-71
2023/05/27 02:19:02;;;;;;;21.83;4.25;;;;;;;;;;4984474;28;20280;-71
2023/05/27 02:21:27;;;;;;;20.00;3.92;;;;;;;;;;4986916;28;20041;-71
2023/05/27 02:23:52;;;;;;;20.23;4.28;;;;;;;;;;4979494;28;20628;-71
2023/05/27 02:26:17;;;;;;;22.38;5.65;;;;;;;;;;4984983;28;20037;-71
2023/05/27 02:28:43;;;;;;;16.63;4.43;;;;;;;;;;4980665;28;20110;-71
2023/05/27 02:31:08;;;;;;;17.87;3.90;;;;;;;;;;4988581;28;20822;-71
2023/05/27 02:33:33;;;;;;;24.17;4.65;;;;;;;;;;4988191;28;20270;-71
2023/05/27 02:35:58;;;;;;;17.95;3.53;;;;;;;;;;4981068;28;20030;-71
2023/05/27 02:38:24;;;;;;;18.23;4.93;;;;;;;;;;4984487;28;20029;-71
2023/05/27 02:40:49;;;;;;;15.40;3.92;;;;;;;;;;4983455;28;20034;-71
2023/05/27 02:43:14;;;;;;;31.50;5.22;;;;;;;;;;4981643;28;20037;-71
2023/05/27 02:45:39;;;;;;;27.30;3.93;;;;;;;;;;4981209;28;20021;-71
2023/05/27 02:48:05;;;;;;;17.93;4.47;;;;;;;;;;4980374;28;20843;-71
2023/05/27 02:50:30;;;;;;;15.43;4.00;;;;;;;;;;4987675;28;20262;-71
2023/05/27 02:52:55;;;;;;;19.50;4.20;;;;;;;;;;4977464;28;20049;-71
2023/05/27 02:55:20;;;;;;;13.38;3.67;;;;;;;;;;4986513;28;20301;-71
2023/05/27 02:57:45;;;;;;;14.13;3.33;;;;;;;;;;4987298;28;20106;-71
2023/05/27 03:00:11;;;;;;;22.53;4.60;;;;;;;;;;4987209;28;20034;-71
2023/05/27 03:02:36;;;;;;;22.65;4.15;;;;;;;;;;4986690;28;20270;-71
2023/05/27 03:05:01;;;;;;;14.33;4.03;;;;;;;;;;4982071;28;20035;-71
2023/05/27 03:07:29;;;;;;;11.55;3.97;;;;;;;;;;4984020;28;20277;-71
2023/05/27 03:09:54;;;;;;;24.05;4.57;;;;;;;;;;4981465;28;20022;-71
2023/05/27 03:12:19;;;;;;;13.57;3.78;;;;;;;;;;4984269;28;20056;-71
2023/05/27 03:14:45;;;;;;;22.38;4.50;;;;;;;;;;4988483;28;20493;-71
2023/05/27 03:17:10;;;;;;;16.05;4.40;;;;;;;;;;4983437;28;20166;-71
2023/05/27 03:19:35;;;;;;;15.95;4.22;;;;;;;;;;4978503;28;20071;-71
2023/05/27 03:22:00;;;;;;;15.50;4.38;;;;;;;;;;4985183;28;20076;-71
2023/05/27 03:24:25;;;;;;;18.83;4.50;;;;;;;;;;4989135;28;20384;-71
2023/05/27 03:26:51;;;;;;;18.20;4.17;;;;;;;;;;4987318;28;20313;-71
2023/05/27 03:29:16;;;;;;;25.70;6.28;;;;;;;;;;4980161;28;20269;-71
2023/05/27 03:31:41;;;;;;;11.60;4.30;;;;;;;;;;4987925;28;20129;-71
2023/05/27 03:34:07;;;;;;;22.38;4.25;;;;;;;;;;4981234;28;20125;-71
2023/05/27 03:36:32;;;;;;;16.50;4.10;;;;;;;;;;4985068;28;20015;-71
2023/05/27 03:38:58;;;;;;;11.57;4.40;;;;;;;;;;4985132;28;20497;-71
2023/05/27 03:41:23;;;;;;;14.15;4.00;;;;;;;;;;4989132;28;20278;-71
2023/05/27 03:43:48;;;;;;;20.30;4.50;;;;;;;;;;4986475;28;20026;-71
2023/05/27 03:46:13;;;;;;;23.73;4.13;;;;;;;;;;4986965;28;20858;-71
2023/05/27 03:48:39;;;;;;;11.30;4.10;;;;;;;;;;4985447;28;20272;-71
2023/05/27 03:51:04;;;;;;;19.43;4.47;;;;;;;;;;4988765;28;20807;-71
2023/05/27 03:53:29;;;;;;;15.40;4.60;;;;;;;;;;4987814;28;20265;-71
2023/05/27 03:55:55;;;;;;;15.23;4.53;;;;;;;;;;4987770;28;20026;-71
2023/05/27 03:58:20;;;;;;;16.88;4.15;;;;;;;;;;4984908;28;20030;-71
2023/05/27 04:00:47;;;;;;;17.00;4.77;;;;;;;;;;4984771;28;20023;-71
2023/05/27 04:03:13;;;;;;;16.27;4.85;;;;;;;;;;4981219;28;20770;-71
2023/05/27 04:05:38;;;;;;;16.50;4.30;;;;;;;;;;4982333;28;20026;-71
2023/05/27 04:08:03;;;;;;;20.02;4.38;;;;;;;;;;4983082;28;20320;-71
2023/05/27 04:10:28;;;;;;;19.23;4.28;;;;;;;;;;4986347;28;20022;-71
2023/05/27 04:12:53;;;;;;;18.50;5.18;;;;;;;;;;4984924;28;20022;-71
2023/05/27 04:15:19;;;;;;;24.43;4.40;;;;;;;;;;4983150;28;20046;-72
2023/05/27 04:17:44;;;;;;;15.70;3.97;;;;;;;;;;4981671;28;20284;-72
2023/05/27 04:20:13;;;;;;;24.40;4.68;;;;;;;;;;4985042;28;20666;-72
2023/05/27 04:22:39;;;;;;;15.50;3.90;;;;;;;;;;4984986;28;20014;-72
2023/05/27 04:25:05;;;;;;;19.10;4.55;;;;;;;;;;4983217;28;20456;-71
2023/05/27 04:27:30;;;;;;;23.13;4.97;;;;;;;;;;4981992;28;20037;-71
2023/05/27 04:29:55;;;;;;;18.77;4.17;;;;;;;;;;4986004;28;20505;-71
2023/05/27 04:32:21;;;;;;;20.17;4.20;;;;;;;;;;4987496;28;20308;-71
2023/05/27 04:34:47;;;;;;;17.27;4.43;;;;;;;;;;4982723;28;21134;-71
2023/05/27 04:37:12;;;;;;;15.82;4.15;;;;;;;;;;4982002;28;20774;-71
2023/05/27 04:39:45;;;;;;;15.23;3.92;;;;;;;;;;4985052;28;20018;-71
2023/05/27 04:42:10;;;;;;;24.95;5.57;;;;;;;;;;4986906;28;20503;-71
2023/05/27 04:44:35;;;;;;;23.88;5.13;;;;;;;;;;4982497;28;20026;-71
2023/05/27 04:47:01;;;;;;;26.02;5.57;;;;;;;;;;4984772;28;20026;-71
2023/05/27 04:49:26;;;;;;;20.25;5.03;;;;;;;;;;4991046;28;20102;-71
2023/05/27 04:51:51;;;;;;;23.73;4.50;;;;;;;;;;4989500;28;20105;-71
2023/05/27 04:54:17;;;;;;;9.63;4.10;;;;;;;;;;4988399;28;20089;-72
2023/05/27 04:56:43;;;;;;;15.93;3.80;;;;;;;;;;4984054;28;20422;-71
2023/05/27 04:59:15;;;;;;;23.20;5.10;;;;;;;;;;4985195;28;20018;-71
2023/05/27 05:01:59;;;;;;;20.65;4.30;;;;;;;;;;4983629;28;20041;-71
2023/05/27 05:04:24;;;;;;;25.35;5.32;;;;;;;;;;4977329;28;20054;-71
2023/05/27 05:06:50;;;;;;;11.27;4.03;;;;;;;;;;4988270;28;20042;-71
2023/05/27 05:09:15;;;;;;;19.67;4.80;;;;;;;;;;4981390;28;20325;-71
2023/05/27 05:11:40;;;;;;;21.43;5.80;;;;;;;;;;4986898;28;20026;-71
2023/05/27 05:14:06;;;;;;;19.53;5.67;;;;;;;;;;4977848;28;20786;-71
2023/05/27 05:16:31;;;;;;;15.10;4.90;;;;;;;;;;4986824;28;20269;-71
2023/05/27 05:18:57;;;;;;;32.97;5.67;;;;;;;;;;4983771;28;20945;-71
2023/05/27 05:21:22;;;;;;;42.70;6.47;;;;;;;;;;4988051;28;20281;-71
2023/05/27 05:23:47;;;;;;;16.08;4.45;;;;;;;;;;4980121;28;20026;-71
2023/05/27 05:26:12;;;;;;;23.02;4.90;;;;;;;;;;4986815;28;20394;-71
2023/05/27 05:28:37;;;;;;;11.70;4.20;;;;;;;;;;4984427;28;20041;-71
2023/05/27 05:31:03;;;;;;;29.40;6.20;;;;;;;;;;4984628;28;20266;-71
2023/05/27 05:33:28;;;;;;;21.88;4.90;;;;;;;;;;4979066;28;20151;-71
2023/05/27 05:35:54;;;;;;;20.38;4.68;;;;;;;;;;4983344;28;20025;-71
2023/05/27 05:38:19;;;;;;;20.05;5.07;;;;;;;;;;4982578;28;20018;-72
2023/05/27 05:40:48;;;;;;;19.80;4.70;;;;;;;;;;4983776;28;20372;-71
2023/05/27 05:43:13;;;;;;;28.83;5.97;;;;;;;;;;4982221;28;20015;-71
2023/05/27 05:45:38;;;;;;;25.65;5.57;;;;;;;;;;4981472;28;20544;-71
2023/05/27 05:48:04;;;;;;;16.47;4.40;;;;;;;;;;4981967;28;20477;-71
2023/05/27 05:50:29;;;;;;;17.60;4.57;;;;;;;;;;4985023;28;20270;-71
2023/05/27 05:52:54;;;;;;;15.32;5.05;;;;;;;;;;4984848;28;20465;-71
2023/05/27 05:55:19;;;;;;;20.95;4.90;;;;;;;;;;4982395;28;20033;-71
2023/05/27 05:57:45;;;;;;;28.42;4.97;;;;;;;;;;4984824;28;20032;-71
2023/05/27 06:00:11;;;;;;;23.13;6.03;;;;;;;;;;4987364;28;20022;-71
2023/05/27 06:02:36;;;;;;;22.00;4.72;;;;;;;;;;4988082;28;20315;-71
2023/05/27 06:05:01;;;;;;;19.05;5.60;;;;;;;;;;4986644;28;21429;-71
2023/05/27 06:07:27;;;;;;;23.88;5.05;;;;;;;;;;4987846;28;20068;-71
2023/05/27 06:09:52;;;;;;;22.60;4.85;;;;;;;;;;4989587;28;20022;-71
2023/05/27 06:12:17;;;;;;;22.90;5.17;;;;;;;;;;4988723;28;20033;-71
2023/05/27 06:14:42;;;;;;;24.30;5.03;;;;;;;;;;4984190;28;20559;-71
2023/05/27 06:17:07;;;;;;;25.63;5.40;;;;;;;;;;4983219;28;20270;-71
2023/05/27 06:19:32;;;;;;;23.65;5.25;;;;;;;;;;4990066;28;20030;-71
2023/05/27 06:21:58;;;;;;;23.10;5.25;;;;;;;;;;4984449;28;20022;-71
2023/05/27 06:24:23;;;;;;;24.05;6.53;;;;;;;;;;4978814;28;21224;-71
2023/05/27 06:26:49;;;;;;;19.53;4.67;;;;;;;;;;4983987;28;20477;-71
2023/05/27 06:29:15;;;;;;;18.73;4.88;;;;;;;;;;4985774;28;20362;-71
2023/05/27 06:31:40;;;;;;;17.10;4.25;;;;;;;;;;4980722;28;20054;-71
2023/05/27 06:34:05;;;;;;;14.73;4.97;;;;;;;;;;4985870;28;20120;-71
2023/05/27 06:36:30;;;;;;;24.08;6.40;;;;;;;;;;4983492;28;20664;-71
2023/05/27 06:38:56;;;;;;;24.80;5.07;;;;;;;;;;4982929;28;20420;-71
2023/05/27 06:41:21;;;;;;;23.50;4.80;;;;;;;;;;4981583;28;20270;-71
2023/05/27 06:43:46;;;;;;;17.25;5.07;;;;;;;;;;4983960;28;20357;-71
2023/05/27 06:46:11;;;;;;;18.13;4.40;;;;;;;;;;4982473;28;20101;-71
2023/05/27 06:48:36;;;;;;;19.57;4.70;;;;;;;;;;4984159;28;20292;-71
2023/05/27 06:51:01;;;;;;;16.43;4.97;;;;;;;;;;4984973;28;20356;-70
2023/05/27 06:53:27;;;;;;;20.17;4.20;;;;;;;;;;4985523;28;20285;-71
2023/05/27 06:55:52;;;;;;;19.70;4.90;;;;;;;;;;4977510;28;20091;-70
2023/05/27 06:58:17;;;;;;;12.23;4.47;;;;;;;;;;4987895;28;20295;-72
2023/05/27 07:00:42;;;;;;;17.77;4.60;;;;;;;;;;4987396;28;20308;-70
2023/05/27 07:03:07;;;;;;;21.37;4.47;;;;;;;;;;4989006;28;20752;-72
2023/05/27 07:05:32;;;;;;;15.47;4.27;;;;;;;;;;4988725;28;20297;-70
2023/05/27 07:07:58;;;;;;;26.60;5.13;;;;;;;;;;4984542;28;20272;-70
2023/05/27 07:10:23;;;;;;;16.93;4.80;;;;;;;;;;4987833;28;21195;-69
2023/05/27 07:12:48;;;;;;;24.65;5.63;;;;;;;;;;4987213;28;20281;-71
2023/05/27 07:15:13;;;;;;;24.67;4.00;;;;;;;;;;4984916;28;20029;-69
2023/05/27 07:17:38;;;;;;;18.07;6.43;;;;;;;;;;4980489;28;20348;-70
2023/05/27 07:20:04;;;;;;;21.48;4.93;;;;;;;;;;4982676;28;20300;-68
2023/05/27 07:22:29;;;;;;;24.27;4.28;;;;;;;;;;4985116;28;20027;-69
2023/05/27 07:24:54;;;;;;;20.83;4.15;;;;;;;;;;4979532;28;20038;-70
2023/05/27 07:27:20;;;;;;;14.05;3.38;;;;;;;;;;4977942;28;20027;-69
2023/05/27 07:29:45;;;;;;;2.73;1.23;;;;;;;;;;4980651;28;20127;-72
2023/05/27 07:32:10;;;;;;;21.00;4.93;;;;;;;;;;4980947;28;20290;-69
2023/05/27 07:34:35;;;;;;;17.20;3.90;;;;;;;;;;4981448;28;20258;-70
2023/05/27 07:37:00;;;;;;;14.27;4.53;;;;;;;;;;4981847;28;20380;-69
2023/05/27 07:39:25;;;;;;;17.63;4.20;;;;;;;;;;4987307;28;20073;-70
2023/05/27 07:41:51;;;;;;;21.03;4.73;;;;;;;;;;4986115;28;20481;-70
2023/05/27 07:44:16;;;;;;;12.50;4.10;;;;;;;;;;4982875;28;20024;-70
2023/05/27 07:46:41;;;;;;;17.60;3.80;;;;;;;;;;4986110;28;20312;-70
2023/05/27 07:49:07;;;;;;;13.30;3.67;;;;;;;;;;4980093;28;20262;-72
2023/05/27 07:51:32;;;;;;;16.50;4.40;;;;;;;;;;4986789;28;20053;-71
2023/05/27 07:53:57;;;;;;;12.33;4.00;;;;;;;;;;4980691;28;20014;-70
2023/05/27 07:56:22;;;;;;;16.50;4.43;;;;;;;;;;4979180;28;20149;-71
2023/05/27 07:58:47;;;;;;;11.85;3.78;;;;;;;;;;4987383;28;20356;-69
2023/05/27 08:01:13;;;;;;;17.07;4.07;;;;;;;;;;4986926;28;20213;-70
2023/05/27 08:03:38;;;;;;;24.13;4.63;;;;;;;;;;4981910;28;20537;-70
2023/05/27 08:06:03;;;;;;;15.17;3.80;;;;;;;;;;4984179;28;20053;-69
2023/05/27 08:08:28;;;;;;;15.95;4.57;;;;;;;;;;4986807;28;20018;-70
2023/05/27 08:10:53;;;;;;;15.60;3.60;;;;;;;;;;4989817;28;20153;-70
2023/05/27 08:13:18;;;;;;;16.30;3.63;;;;;;;;;;4988271;28;20026;-70
2023/05/27 08:15:44;;;;;;;10.80;3.50;;;;;;;;;;4988555;28;20100;-69
2023/05/27 08:18:09;;;;;;;12.18;3.85;;;;;;;;;;4980936;28;20482;-69
2023/05/27 08:20:34;;;;;;;43.72;5.82;;;;;;;;;;4985524;28;20023;-69
2023/05/27 08:22:59;;;;;;;16.50;3.63;;;;;;;;;;4988614;28;20104;-69
2023/05/27 08:25:24;;;;;;;14.17;3.80;;;;;;;;;;4990968;28;20508;-69
2023/05/27 08:27:51;;;;;;;14.83;2.70;;;;;;;;;;4987713;28;20027;-69
2023/05/27 08:30:16;;;;;;;10.15;3.47;;;;;;;;;;4991040;28;20021;-69
2023/05/27 08:32:41;;;;;;;12.32;3.90;;;;;;;;;;4989288;28;20018;-69
2023/05/27 08:35:07;;;;;;;13.20;3.47;;;;;;;;;;4982563;28;20050;-69
2023/05/27 08:37:32;;;;;;;11.45;3.38;;;;;;;;;;4988464;28;20377;-69
2023/05/27 08:39:57;;;;;;;16.58;4.10;;;;;;;;;;4986159;28;20112;-70
2023/05/27 08:42:23;;;;;;;17.80;4.43;;;;;;;;;;4989548;28;20046;-69
2023/05/27 08:44:48;;;;;;;17.63;3.90;;;;;;;;;;4991625;28;20375;-69
2023/05/27 08:47:14;;;;;;;20.90;3.37;;;;;;;;;;4986879;28;20037;-70
2023/05/27 08:49:39;;;;;;;22.73;3.25;;;;;;;;;;4985724;28;20026;-69
2023/05/27 08:52:06;;;;;;;17.20;3.63;;;;;;;;;;4985748;28;20014;-70
2023/05/27 08:54:33;;;;;;;12.98;3.20;;;;;;;;;;4987213;28;20262;-70
2023/05/27 08:56:59;;;;;;;15.27;2.88;;;;;;;;;;4985199;28;20047;-69
2023/05/27 08:59:25;;;;;;;14.90;3.75;;;;;;;;;;4982260;28;20018;-70
2023/05/27 09:01:51;;;;;;;18.08;3.80;;;;;;;;;;4986305;28;20022;-70
2023/05/27 09:04:16;;;;;;;17.30;3.40;;;;;;;;;;4986710;28;20034;-69
2023/05/27 09:06:41;;;;;;;13.93;3.10;;;;;;;;;;4981769;28;20027;-69
2023/05/27 09:09:07;;;;;;;16.13;3.40;;;;;;;;;;4985347;28;20369;-69
2023/05/27 09:11:35;;;;;;;16.23;3.05;;;;;;;;;;4989995;28;20101;-69
2023/05/27 09:14:00;;;;;;;11.95;3.30;;;;;;;;;;4989199;28;20018;-69
2023/05/27 09:16:26;;;;;;;20.73;2.75;;;;;;;;;;4992140;28;20026;-69
2023/05/27 09:18:51;;;;;;;13.73;3.40;;;;;;;;;;4989043;28;20080;-69
2023/05/27 09:21:17;;;;;;;16.27;2.90;;;;;;;;;;4991425;28;20124;-69
2023/05/27 09:23:42;;;;;;;16.15;3.00;;;;;;;;;;4987597;28;20624;-69
2023/05/27 09:26:08;;;;;;;15.53;4.10;;;;;;;;;;4988194;28;20072;-69
2023/05/27 09:28:35;;;;;;;14.30;3.20;;;;;;;;;;4983003;28;20082;-69
2023/05/27 09:31:04;;;;;;;15.07;4.40;;;;;;;;;;4979069;28;20015;-70
2023/05/27 09:33:38;;;;;;;13.10;2.83;;;;;;;;;;4979375;28;20019;-69
2023/05/27 09:36:04;;;;;;;18.90;3.88;;;;;;;;;;4982937;28;20034;-70
2023/05/27 09:38:33;;;;;;;16.35;3.42;;;;;;;;;;4988161;28;20031;-70
2023/05/27 09:40:58;;;;;;;16.15;3.58;;;;;;;;;;4987588;28;20485;-69
2023/05/27 09:43:24;;;;;;;7.20;2.63;;;;;;;;;;4986311;28;20035;-72
2023/05/27 09:45:51;;;;;;;9.52;2.83;;;;;;;;;;4986438;28;20026;-70
2023/05/27 09:48:18;;;;;;;12.10;3.75;;;;;;;;;;4991025;28;20010;-70
2023/05/27 09:50:43;;;;;;;9.82;3.75;;;;;;;;;;4988808;28;20022;-69
2023/05/27 09:53:09;;;;;;;16.27;3.85;;;;;;;;;;4990760;28;20068;-69
2023/05/27 09:55:34;;;;;;;24.13;3.13;;;;;;;;;;4991560;28;20026;-70
2023/05/27 09:58:00;;;;;;;14.20;3.75;;;;;;;;;;4991881;28;20033;-69
2023/05/27 10:00:26;;;;;;;10.77;3.28;;;;;;;;;;4990431;28;20054;-69
2023/05/27 10:02:53;;;;;;;12.77;3.15;;;;;;;;;;4990445;28;20022;-71
2023/05/27 10:05:20;;;;;;;9.40;2.60;;;;;;;;;;4991073;28;20034;-71
2023/05/27 10:07:46;;;;;;;10.43;2.75;;;;;;;;;;4990570;28;20152;-71
2023/05/27 10:10:12;;;;;;;7.43;2.35;;;;;;;;;;4991434;28;20104;-70
2023/05/27 10:12:38;;;;;;;12.80;2.80;;;;;;;;;;4991255;28;20041;-71
2023/05/27 10:15:04;;;;;;;7.70;2.65;;;;;;;;;;4991594;28;20026;-71
2023/05/27 10:17:42;;;;;;;13.25;3.03;;;;;;;;;;4989833;28;20515;-70
2023/05/27 10:20:09;;;;;;;11.97;4.13;;;;;;;;;;4991387;28;20137;-70
2023/05/27 10:22:45;;;;;;;12.70;3.33;;;;;;;;;;4990629;28;20101;-71
2023/05/27 10:25:14;;;;;;;11.00;3.15;;;;;;;;;;4991050;28;20493;-71
2023/05/27 10:27:43;;;;;;;11.77;3.33;;;;;;;;;;4991108;28;20101;-71
2023/05/27 10:30:08;;;;;;;16.02;3.25;;;;;;;;;;4990750;28;20042;-71
2023/05/27 10:32:41;;;;;;;14.20;3.85;;;;;;;;;;4990565;28;20054;-71
2023/05/27 10:35:07;;;;;;;22.95;4.70;;;;;;;;;;4991149;28;20032;-71
2023/05/27 10:37:33;;;;;;;12.23;2.92;;;;;;;;;;4989941;28;20604;-71
2023/05/27 10:39:59;;;;;;;17.67;3.38;;;;;;;;;;4991027;28;20102;-71
2023/05/27 10:42:24;;;;;;;10.07;3.40;;;;;;;;;;4990994;28;20086;-71
2023/05/27 10:45:01;;;;;;;11.68;2.83;;;;;;;;;;4989861;28;20021;-71
2023/05/27 10:47:28;;;;;;;13.00;3.05;;;;;;;;;;4989664;28;20032;-71
2023/05/27 10:49:56;;;;;;;17.73;4.05;;;;;;;;;;4991071;28;20110;-71
2023/05/27 10:52:23;;;;;;;12.13;3.50;;;;;;;;;;4989137;28;20050;-71
2023/05/27 10:54:50;;;;;;;16.48;4.00;;;;;;;;;;4990074;28;20025;-71
2023/05/27 10:57:16;;;;;;;9.57;3.25;;;;;;;;;;4987400;28;20026;-71
2023/05/27 10:59:47;;;;;;;8.05;2.90;;;;;;;;;;4984278;28;20025;-71
2023/05/27 11:02:13;;;;;;;15.52;3.28;;;;;;;;;;4991083;28;20077;-71
2023/05/27 11:04:38;;;;;;;14.52;3.03;;;;;;;;;;4990792;28;20019;-71
2023/05/27 11:07:04;;;;;;;9.73;3.53;;;;;;;;;;4987752;28;20026;-71
2023/05/27 11:09:29;;;;;;;11.15;3.20;;;;;;;;;;4989451;28;20101;-71
2023/05/27 11:12:01;;;;;;;10.60;3.37;;;;;;;;;;4990056;28;20484;-71
2023/05/27 11:14:27;;;;;;;9.35;3.40;;;;;;;;;;4985868;28;20023;-71
2023/05/27 11:16:52;;;;;;;15.10;3.10;;;;;;;;;;4990773;28;20076;-71
2023/05/27 11:19:20;;;;;;;10.57;2.53;;;;;;;;;;4990647;28;20469;-71
2023/05/27 11:21:46;;;;;;;10.27;3.75;;;;;;;;;;4989869;28;20756;-71
2023/05/27 11:24:18;;;;;;;12.32;2.92;;;;;;;;;;4990677;28;20110;-71
2023/05/27 11:26:46;;;;;;;10.73;3.17;;;;;;;;;;4984158;28;20130;-71
2023/05/27 11:29:11;;;;;;;9.60;2.92;;;;;;;;;;4983415;28;20090;-71
2023/05/27 11:31:40;;;;;;;9.85;3.53;;;;;;;;;;4989307;28;20089;-71
2023/05/27 11:34:10;;;;;;;9.15;3.63;;;;;;;;;;4983619;28;20409;-71
2023/05/27 11:36:36;;;;;;;12.07;3.03;;;;;;;;;;4985022;28;20029;-71
2023/05/27 11:39:01;;;;;;;9.82;3.55;;;;;;;;;;4986343;28;20113;-71
2023/05/27 11:41:27;;;;;;;10.97;2.93;;;;;;;;;;4982664;28;20542;-71
2023/05/27 11:43:55;;;;;;;9.27;3.17;;;;;;;;;;4989757;28;20265;-71
2023/05/27 11:46:20;;;;;;;13.27;2.53;;;;;;;;;;4977406;28;20093;-71
2023/05/27 11:48:45;;;;;;;11.45;2.97;;;;;;;;;;4987266;28;20481;-71
2023/05/27 11:51:11;;;;;;;8.20;3.13;;;;;;;;;;4989771;28;20072;-71
2023/05/27 11:53:46;;;;;;;12.15;3.17;;;;;;;;;;4980334;28;20019;-71
2023/05/27 11:56:11;;;;;;;12.13;3.35;;;;;;;;;;4982073;28;20022;-70
2023/05/27 11:58:36;;;;;;;13.83;2.60;;;;;;;;;;4990295;28;20026;-71
2023/05/27 12:01:02;;;;;;;8.63;3.05;;;;;;;;;;4983613;28;20038;-71
2023/05/27 12:03:27;;;;;;;16.92;3.33;;;;;;;;;;4985138;28;20022;-71
2023/05/27 12:05:52;;;;;;;14.43;3.92;;;;;;;;;;4984905;28;20037;-71
2023/05/27 12:08:18;;;;;;;10.80;3.43;;;;;;;;;;4982781;28;20014;-71
2023/05/27 12:10:44;;;;;;;7.63;1.87;;;;;;;;;;4987515;28;20053;-71
2023/05/27 12:13:10;;;;;;;6.40;1.75;;;;;;;;;;4993711;28;20100;-71
2023/05/27 12:15:35;;;;;;;12.23;3.55;;;;;;;;;;4989198;28;20493;-71
2023/05/27 12:18:00;;;;;;;9.97;2.60;;;;;;;;;;4987032;28;20050;-71
2023/05/27 12:20:27;;;;;;;10.57;2.97;;;;;;;;;;4993049;28;20357;-71
2023/05/27 12:22:53;;;;;;;7.95;4.10;;;;;;;;;;4994481;28;20262;-71
2023/05/27 12:25:18;;;;;;;8.35;3.03;;;;;;;;;;4993135;28;20491;-71
2023/05/27 12:27:44;;;;;;;7.23;3.07;;;;;;;;;;4992936;28;20525;-71
2023/05/27 12:30:10;;;;;;;10.57;3.30;;;;;;;;;;4986001;28;20836;-71
2023/05/27 12:32:35;;;;;;;7.40;2.85;;;;;;;;;;4982678;28;20043;-71
2023/05/27 12:35:00;;;;;;;7.37;2.87;;;;;;;;;;4983607;28;20397;-71
2023/05/27 12:37:27;;;;;;;7.47;2.57;;;;;;;;;;4991296;28;20038;-71
2023/05/27 12:39:52;;;;;;;7.47;3.20;;;;;;;;;;4993225;28;20057;-71
2023/05/27 12:42:18;;;;;;;7.50;3.63;;;;;;;;;;4990984;28;20470;-71
2023/05/27 12:44:43;;;;;;;10.37;3.13;;;;;;;;;;4989783;28;20025;-71
2023/05/27 12:47:08;;;;;;;9.07;2.73;;;;;;;;;;4972621;28;20273;-71
2023/05/27 12:49:33;;;;;;;8.63;2.97;;;;;;;;;;4976909;28;20535;-71
2023/05/27 12:51:59;;;;;;;12.27;3.30;;;;;;;;;;4972562;28;20041;-71
2023/05/27 12:54:24;;;;;;;8.13;2.88;;;;;;;;;;4969293;28;20030;-71
2023/05/27 12:56:49;;;;;;;12.48;3.08;;;;;;;;;;4969520;28;20030;-72
2023/05/27 12:59:14;;;;;;;12.70;3.33;;;;;;;;;;4981156;28;20101;-71
2023/05/27 13:01:40;;;;;;;9.35;3.35;;;;;;;;;;4980224;28;20062;-73
2023/05/27 13:04:06;;;;;;;16.30;4.03;;;;;;;;;;4989025;28;20029;-72
2023/05/27 13:06:31;;;;;;;9.02;3.15;;;;;;;;;;4987491;28;20023;-73
2023/05/27 13:08:56;;;;;;;10.60;2.97;;;;;;;;;;4985223;28;20014;-72
2023/05/27 13:11:21;;;;;;;6.10;2.50;;;;;;;;;;4985755;28;20783;-72
2023/05/27 13:13:47;;;;;;;9.05;2.75;;;;;;;;;;4987566;28;20091;-72
2023/05/27 13:16:12;;;;;;;9.60;3.50;;;;;;;;;;4986833;28;20044;-72
2023/05/27 13:18:37;;;;;;;10.73;3.30;;;;;;;;;;4990391;28;20384;-72
2023/05/27 13:21:03;;;;;;;9.57;3.37;;;;;;;;;;4991757;28;20277;-72
2023/05/27 13:23:29;;;;;;;8.98;2.67;;;;;;;;;;4991173;28;20035;-72
2023/05/27 13:25:54;;;;;;;9.57;3.90;;;;;;;;;;4988127;28;20050;-72
2023/05/27 13:28:19;;;;;;;7.57;3.83;;;;;;;;;;4987694;28;20055;-73
2023/05/27 13:30:45;;;;;;;11.13;3.13;;;;;;;;;;4991618;28;20341;-72
2023/05/27 13:33:10;;;;;;;8.48;3.17;;;;;;;;;;4983463;28;20019;-73
2023/05/27 13:35:35;;;;;;;12.63;3.17;;;;;;;;;;4984255;28;20050;-72
2023/05/27 13:38:00;;;;;;;11.43;3.73;;;;;;;;;;4987173;28;20543;-73
2023/05/27 13:40:25;;;;;;;10.77;3.30;;;;;;;;;;4987631;28;20034;-73
2023/05/27 13:42:51;;;;;;;8.45;3.25;;;;;;;;;;4981311;28;20487;-72
2023/05/27 13:45:16;;;;;;;14.77;3.40;;;;;;;;;;4985214;28;20035;-72
2023/05/27 13:47:44;;;;;;;7.77;3.03;;;;;;;;;;4990577;28;20689;-73
2023/05/27 13:50:09;;;;;;;8.73;3.20;;;;;;;;;;4988520;28;20343;-72
2023/05/27 13:52:35;;;;;;;10.10;3.30;;;;;;;;;;4984252;28;20392;-72
2023/05/27 13:55:00;;;;;;;10.07;3.75;;;;;;;;;;4981734;28;20541;-73
2023/05/27 13:57:26;;;;;;;9.73;3.50;;;;;;;;;;4984869;28;20025;-73
2023/05/27 13:59:51;;;;;;;11.10;3.07;;;;;;;;;;4987206;28;20170;-72
2023/05/27 14:02:16;;;;;;;10.60;3.55;;;;;;;;;;4987138;28;20021;-72
2023/05/27 14:04:42;;;;;;;5.60;2.57;;;;;;;;;;4990113;28;20022;-72
2023/05/27 14:07:07;;;;;;;7.30;3.53;;;;;;;;;;4986697;28;20301;-72
2023/05/27 14:09:32;;;;;;;12.00;3.92;;;;;;;;;;4988279;28;20354;-72
2023/05/27 14:11:57;;;;;;;9.77;3.47;;;;;;;;;;4990614;28;20022;-72
2023/05/27 14:14:23;;;;;;;9.13;2.97;;;;;;;;;;4990252;28;20053;-73
2023/05/27 14:16:48;;;;;;;7.17;2.87;;;;;;;;;;4990257;28;20047;-72
2023/05/27 14:19:13;;;;;;;8.97;2.70;;;;;;;;;;4981529;28;20077;-72
2023/05/27 14:21:39;;;;;;;7.90;3.10;;;;;;;;;;4985259;28;20548;-72